Time;durP1;ratioP1;P1;durP2;ratioP2;P2;SDS_P1;SDS_P2;PMS_P1;PMS_P2;Temp;Humidity;BMP_temperature;BMP_pressure;BME280_temperature;BME280_humidity;BME280_pressure;Samples;Min_cycle;Max_cycle;Signal;HPM_P1;HPM_P2
2023/10/18 00:00:32;;;;;;;10.60;5.57;;;6.40;99.90;;;;;;4995349;28;20132;-73
2023/10/18 00:03:01;;;;;;;10.80;5.00;;;6.30;99.90;;;;;;4996220;28;20273;-73
2023/10/18 00:05:27;;;;;;;11.40;5.60;;;6.40;99.90;;;;;;4996436;28;20285;-74
2023/10/18 00:07:56;;;;;;;11.37;5.83;;;6.30;99.90;;;;;;4995999;28;20050;-73
2023/10/18 00:10:22;;;;;;;12.23;5.50;;;6.30;99.90;;;;;;4994986;28;20050;-74
2023/10/18 00:12:48;;;;;;;10.53;6.10;;;6.30;99.90;;;;;;4995994;28;20122;-74
2023/10/18 00:15:14;;;;;;;11.03;5.97;;;6.30;99.90;;;;;;4995801;28;20056;-74
2023/10/18 00:17:40;;;;;;;13.43;6.00;;;6.30;99.90;;;;;;4995131;28;20288;-74
2023/10/18 00:20:13;;;;;;;10.30;6.37;;;6.30;99.90;;;;;;4995059;28;20047;-73
2023/10/18 00:22:40;;;;;;;10.27;6.23;;;6.20;99.90;;;;;;4995276;28;20064;-74
2023/10/18 00:25:06;;;;;;;11.27;6.90;;;6.20;99.90;;;;;;4995496;28;20286;-74
2023/10/18 00:27:32;;;;;;;11.50;6.30;;;6.20;99.90;;;;;;4995977;28;20701;-74
2023/10/18 00:29:58;;;;;;;11.77;6.83;;;6.20;99.90;;;;;;4995722;28;20073;-73
2023/10/18 00:32:27;;;;;;;11.80;6.23;;;6.20;99.90;;;;;;4995882;28;20046;-74
2023/10/18 00:34:54;;;;;;;12.95;7.25;;;6.20;99.90;;;;;;4995744;28;20482;-74
2023/10/18 00:37:21;;;;;;;10.77;6.82;;;6.20;99.90;;;;;;4995467;28;20139;-74
2023/10/18 00:39:47;;;;;;;14.20;6.95;;;6.20;99.90;;;;;;4995511;28;20050;-74
2023/10/18 00:42:28;;;;;;;12.03;7.47;;;6.10;99.90;;;;;;4994144;28;20104;-73
2023/10/18 00:45:08;;;;;;;13.38;7.57;;;6.10;99.90;;;;;;4995522;28;20328;-74
2023/10/18 00:47:35;;;;;;;13.95;7.10;;;6.10;99.90;;;;;;4995505;28;20127;-74
2023/10/18 00:50:02;;;;;;;14.15;8.82;;;6.10;99.90;;;;;;4994158;28;20077;-73
2023/10/18 00:52:30;;;;;;;16.55;9.13;;;6.10;99.90;;;;;;4995254;28;20054;-74
2023/10/18 00:54:55;;;;;;;15.55;8.90;;;6.10;99.90;;;;;;4994433;28;20061;-74
2023/10/18 00:57:24;;;;;;;13.70;8.17;;;6.00;99.90;;;;;;4994103;28;20038;-73
2023/10/18 00:59:52;;;;;;;11.80;8.13;;;6.00;99.90;;;;;;4994832;28;20053;-73
2023/10/18 01:02:19;;;;;;;15.35;9.02;;;6.00;99.90;;;;;;4994955;28;20726;-73
2023/10/18 01:04:46;;;;;;;14.30;9.38;;;6.00;99.90;;;;;;4995114;28;20188;-75
2023/10/18 01:07:14;;;;;;;16.80;9.23;;;6.00;99.90;;;;;;4995139;28;20108;-73
2023/10/18 01:09:48;;;;;;;15.90;9.30;;;6.00;99.90;;;;;;4995913;28;20152;-74
2023/10/18 01:12:15;;;;;;;16.20;10.02;;;6.00;99.90;;;;;;4995728;28;20200;-74
2023/10/18 01:14:44;;;;;;;14.45;9.50;;;6.00;99.90;;;;;;4994842;28;20144;-74
2023/10/18 01:17:11;;;;;;;17.17;10.32;;;6.00;99.90;;;;;;4995235;28;20154;-74
2023/10/18 01:19:40;;;;;;;18.30;10.70;;;6.00;99.90;;;;;;4994446;28;20413;-75
2023/10/18 01:22:07;;;;;;;14.80;10.57;;;6.00;99.90;;;;;;4995160;28;20046;-73
2023/10/18 01:24:34;;;;;;;20.30;11.23;;;6.00;99.90;;;;;;4995436;28;20071;-75
2023/10/18 01:27:02;;;;;;;19.70;12.43;;;6.00;99.90;;;;;;4995019;28;20058;-74
2023/10/18 01:29:28;;;;;;;17.52;12.82;;;6.00;99.90;;;;;;4995041;28;20061;-74
2023/10/18 01:31:55;;;;;;;18.15;12.05;;;5.90;99.90;;;;;;4992763;28;20549;-74
2023/10/18 01:34:21;;;;;;;18.85;12.30;;;6.00;99.90;;;;;;4994711;28;20042;-74
2023/10/18 01:36:47;;;;;;;18.37;13.07;;;6.00;99.90;;;;;;4994918;28;20120;-73
2023/10/18 01:39:18;;;;;;;22.57;13.73;;;6.00;99.90;;;;;;4994521;28;20050;-74
2023/10/18 01:41:53;;;;;;;20.23;13.63;;;6.00;99.90;;;;;;4994663;28;20069;-73
2023/10/18 01:44:27;;;;;;;24.00;13.93;;;6.00;99.90;;;;;;4994308;28;20050;-73
2023/10/18 01:47:06;;;;;;;19.70;14.85;;;6.00;99.90;;;;;;4994577;28;20118;-73
2023/10/18 01:49:41;;;;;;;21.80;13.98;;;6.00;99.90;;;;;;4994704;28;20375;-74
2023/10/18 01:52:08;;;;;;;24.27;14.35;;;6.00;99.90;;;;;;4994211;28;20050;-73
2023/10/18 01:54:34;;;;;;;17.70;13.63;;;6.00;99.90;;;;;;4994349;28;20485;-74
2023/10/18 01:57:00;;;;;;;21.10;14.27;;;6.00;99.90;;;;;;4993114;28;20094;-73
2023/10/18 01:59:29;;;;;;;19.73;13.93;;;6.00;99.90;;;;;;4993979;28;20074;-73
2023/10/18 02:01:58;;;;;;;21.73;15.30;;;5.90;99.90;;;;;;4994178;28;20047;-73
2023/10/18 02:04:31;;;;;;;20.55;14.40;;;5.90;99.90;;;;;;4993825;28;20046;-73
2023/10/18 02:06:59;;;;;;;25.08;15.50;;;6.00;99.90;;;;;;4994300;28;20399;-73
2023/10/18 02:09:35;;;;;;;22.27;14.80;;;5.90;99.90;;;;;;4993564;28;20226;-73
2023/10/18 02:12:05;;;;;;;21.90;14.80;;;5.90;99.90;;;;;;4994261;28;20386;-74
2023/10/18 02:14:34;;;;;;;25.88;16.25;;;5.90;99.90;;;;;;4993983;28;20048;-73
2023/10/18 02:17:00;;;;;;;22.75;15.77;;;5.90;99.90;;;;;;4993854;28;20042;-73
2023/10/18 02:19:27;;;;;;;22.05;16.33;;;5.90;99.90;;;;;;4993556;28;20347;-73
2023/10/18 02:21:56;;;;;;;25.88;17.67;;;5.90;99.90;;;;;;4992832;28;20050;-73
2023/10/18 02:24:26;;;;;;;27.80;16.33;;;5.90;99.90;;;;;;4993681;28;20134;-74
2023/10/18 02:26:54;;;;;;;25.10;17.60;;;5.90;99.90;;;;;;4993435;28;20054;-73
2023/10/18 02:29:23;;;;;;;27.50;17.08;;;5.90;99.90;;;;;;4993551;28;20506;-73
2023/10/18 02:31:52;;;;;;;26.52;17.42;;;5.90;99.90;;;;;;4992444;28;20420;-73
2023/10/18 02:34:18;;;;;;;27.00;17.13;;;5.90;99.90;;;;;;4993391;28;20388;-73
2023/10/18 02:36:47;;;;;;;26.15;17.33;;;5.90;99.90;;;;;;4993491;28;20046;-73
2023/10/18 02:39:23;;;;;;;23.38;17.13;;;5.90;99.90;;;;;;4993544;28;20085;-73
2023/10/18 02:41:50;;;;;;;24.67;16.70;;;5.90;99.90;;;;;;4992507;28;20052;-73
2023/10/18 02:44:22;;;;;;;28.45;18.33;;;5.90;99.90;;;;;;4992895;28;20057;-73
2023/10/18 02:46:55;;;;;;;24.63;17.27;;;5.90;99.90;;;;;;4992371;28;20137;-73
2023/10/18 02:49:23;;;;;;;23.60;17.13;;;5.90;99.90;;;;;;4992512;28;20054;-73
2023/10/18 02:51:50;;;;;;;24.45;17.40;;;5.90;99.90;;;;;;4993572;28;20554;-73
2023/10/18 02:54:16;;;;;;;24.98;16.92;;;5.90;99.90;;;;;;4992323;28;20533;-73
2023/10/18 02:56:52;;;;;;;22.80;16.67;;;5.90;99.90;;;;;;4993656;28;20042;-74
2023/10/18 02:59:21;;;;;;;25.98;17.17;;;5.90;99.90;;;;;;4993073;28;20281;-73
2023/10/18 03:01:53;;;;;;;21.65;16.13;;;5.90;99.90;;;;;;4993197;28;20057;-73
2023/10/18 03:04:22;;;;;;;24.73;16.95;;;5.80;99.90;;;;;;4993344;28;20058;-74
2023/10/18 03:06:52;;;;;;;23.48;16.27;;;5.80;99.90;;;;;;4993590;28;20117;-74
2023/10/18 03:09:38;;;;;;;23.92;17.23;;;5.80;99.90;;;;;;4993124;28;20061;-73
2023/10/18 03:12:06;;;;;;;23.25;15.85;;;5.80;99.90;;;;;;4992226;28;20070;-74
2023/10/18 03:14:41;;;;;;;24.85;17.20;;;5.80;99.90;;;;;;4993093;28;20050;-73
2023/10/18 03:19:58;;;;;;;23.30;16.45;;;5.80;99.90;;;;;;4993341;28;20046;-74
2023/10/18 03:22:32;;;;;;;23.92;16.50;;;5.80;99.90;;;;;;4993052;28;20058;-74
2023/10/18 03:25:01;;;;;;;23.48;16.83;;;5.80;99.90;;;;;;4993457;28;20054;-73
2023/10/18 03:27:41;;;;;;;28.83;16.92;;;5.80;99.90;;;;;;4992914;28;20109;-74
2023/10/18 03:30:44;;;;;;;24.98;17.00;;;5.80;99.90;;;;;;4992108;28;20046;-73
2023/10/18 03:33:00;;;;;;;23.35;16.30;;;5.80;99.90;;;;;;4990102;28;20077;-74
2023/10/18 03:35:26;;;;;;;22.25;15.65;;;5.70;99.90;;;;;;4992954;28;20082;-72
2023/10/18 03:37:56;;;;;;;25.23;16.73;;;5.70;99.90;;;;;;4993102;28;20081;-73
2023/10/18 03:40:26;;;;;;;22.70;16.60;;;5.60;99.90;;;;;;4992842;28;20084;-73
2023/10/18 03:42:53;;;;;;;23.60;17.08;;;5.60;99.90;;;;;;4992929;28;20534;-74
2023/10/18 03:45:22;;;;;;;23.25;16.98;;;5.60;99.90;;;;;;4992525;28;20391;-73
2023/10/18 03:47:58;;;;;;;26.10;17.27;;;5.60;99.90;;;;;;4993239;28;20053;-73
2023/10/18 03:50:40;;;;;;;23.67;16.90;;;5.60;99.90;;;;;;4992935;28;20058;-74
2023/10/18 03:53:12;;;;;;;22.15;16.55;;;5.50;99.90;;;;;;4991924;28;20061;-74
2023/10/18 03:55:44;;;;;;;25.15;17.17;;;5.50;99.90;;;;;;4993632;28;20046;-74
2023/10/18 03:58:09;;;;;;;22.48;16.20;;;5.50;99.90;;;;;;4996551;28;20395;-74
2023/10/18 04:00:37;;;;;;;27.80;17.13;;;5.50;99.90;;;;;;4996429;28;20038;-75
2023/10/18 04:03:12;;;;;;;25.35;17.10;;;5.50;99.90;;;;;;4996600;28;20061;-74
2023/10/18 04:08:07;;;;;;;25.02;17.65;;;5.50;99.90;;;;;;4996223;28;20081;-75
2023/10/18 04:10:37;;;;;;;22.23;17.75;;;5.50;99.90;;;;;;4995802;28;20092;-74
2023/10/18 04:13:11;;;;;;;23.50;17.40;;;5.50;99.90;;;;;;4996302;28;20105;-74
2023/10/18 04:15:43;;;;;;;25.67;17.40;;;5.50;99.90;;;;;;4995997;28;20472;-73
2023/10/18 04:20:35;;;;;;;25.23;17.77;;;5.50;99.90;;;;;;4995704;28;20108;-74
2023/10/18 04:23:26;;;;;;;24.65;17.10;;;5.50;99.90;;;;;;4994655;28;20403;-74
2023/10/18 04:26:01;;;;;;;23.38;17.48;;;5.50;99.90;;;;;;4996082;28;20051;-74
2023/10/18 04:28:37;;;;;;;23.58;17.27;;;5.50;99.90;;;;;;4995795;28;20050;-73
2023/10/18 04:31:04;;;;;;;22.17;16.85;;;5.50;99.90;;;;;;4995839;28;20104;-74
2023/10/18 04:36:12;;;;;;;24.67;16.90;;;5.50;99.90;;;;;;4995858;28;20050;-74
2023/10/18 04:38:48;;;;;;;25.20;18.00;;;5.50;99.90;;;;;;4994694;28;20102;-74
2023/10/18 04:41:28;;;;;;;23.90;17.92;;;5.50;99.90;;;;;;4995785;28;20054;-74
2023/10/18 04:44:17;;;;;;;23.33;17.02;;;5.50;99.90;;;;;;4995509;28;20054;-74
2023/10/18 04:46:47;;;;;;;21.13;16.70;;;5.50;99.90;;;;;;4995382;28;20133;-74
2023/10/18 04:54:16;;;;;;;22.83;18.70;;;5.50;99.90;;;;;;4995448;28;20458;-73
2023/10/18 04:56:43;;;;;;;25.30;17.30;;;5.50;99.90;;;;;;4995314;28;20042;-74
2023/10/18 04:59:11;;;;;;;24.90;16.83;;;5.50;99.90;;;;;;4995365;28;20054;-74
2023/10/18 05:04:33;;;;;;;26.75;18.38;;;5.50;99.90;;;;;;4995271;28;20560;-74
2023/10/18 05:07:14;;;;;;;27.20;17.85;;;5.50;99.90;;;;;;4995372;28;20046;-74
2023/10/18 05:15:29;;;;;;;25.13;17.92;;;5.40;99.90;;;;;;4993636;28;20058;-73
2023/10/18 05:20:07;;;;;;;23.60;17.23;;;5.40;99.90;;;;;;4975631;28;20388;-74
2023/10/18 05:22:41;;;;;;;22.65;18.13;;;5.40;99.90;;;;;;4975301;28;20090;-73
2023/10/18 05:28:00;;;;;;;25.08;18.63;;;5.50;99.90;;;;;;4974917;28;20069;-74
2023/10/18 05:30:27;;;;;;;24.88;17.80;;;5.50;99.90;;;;;;4975532;28;20082;-74
2023/10/18 05:35:28;;;;;;;24.95;19.38;;;5.50;99.90;;;;;;4975218;28;20051;-74
2023/10/18 05:38:18;;;;;;;24.15;18.63;;;5.50;99.90;;;;;;4975042;28;20061;-74
2023/10/18 05:40:55;;;;;;;25.70;18.75;;;5.50;99.90;;;;;;4975028;28;20059;-73
2023/10/18 05:43:30;;;;;;;22.05;18.10;;;5.50;99.90;;;;;;4975167;28;20050;-74
2023/10/18 05:45:57;;;;;;;25.42;19.33;;;5.50;99.90;;;;;;4975078;28;20082;-74
2023/10/18 05:48:23;;;;;;;23.75;19.20;;;5.60;99.90;;;;;;4974826;28;20068;-74
2023/10/18 05:50:56;;;;;;;25.08;19.67;;;5.60;99.90;;;;;;4973575;28;20058;-74
2023/10/18 05:53:28;;;;;;;25.17;19.30;;;5.50;99.90;;;;;;4974980;28;20093;-74
2023/10/18 05:55:54;;;;;;;24.48;19.52;;;5.60;99.90;;;;;;4973795;28;20093;-75
2023/10/18 05:58:26;;;;;;;23.45;18.40;;;5.60;99.90;;;;;;4974833;28;20062;-74
2023/10/18 06:00:55;;;;;;;25.02;19.60;;;5.60;99.90;;;;;;4974549;28;20047;-74
2023/10/18 06:03:22;;;;;;;22.55;17.85;;;5.60;99.90;;;;;;4974943;28;20053;-73
2023/10/18 06:05:53;;;;;;;24.50;18.77;;;5.60;99.90;;;;;;4974578;28;20054;-74
2023/10/18 06:08:22;;;;;;;24.05;18.67;;;5.60;99.90;;;;;;4974681;28;20050;-73
2023/10/18 06:11:01;;;;;;;25.67;19.05;;;5.60;99.90;;;;;;4974297;28;20058;-73
2023/10/18 06:13:30;;;;;;;26.05;19.30;;;5.60;99.90;;;;;;4974502;28;20054;-73
2023/10/18 06:15:58;;;;;;;24.58;19.15;;;5.70;99.90;;;;;;4974302;28;20047;-73
2023/10/18 06:18:37;;;;;;;22.10;18.05;;;5.70;99.90;;;;;;4974023;28;20058;-74
2023/10/18 06:21:11;;;;;;;23.83;18.58;;;5.70;99.90;;;;;;4974919;28;20419;-73
2023/10/18 06:23:37;;;;;;;23.58;19.23;;;5.70;99.90;;;;;;4973764;28;20047;-73
2023/10/18 06:28:53;;;;;;;23.88;18.90;;;5.80;99.90;;;;;;4974235;28;20054;-74
2023/10/18 06:31:21;;;;;;;21.80;17.60;;;5.90;99.90;;;;;;4974364;28;20096;-74
2023/10/18 06:33:54;;;;;;;23.58;17.95;;;5.90;99.90;;;;;;4974007;28;20055;-74
2023/10/18 06:36:21;;;;;;;25.33;19.15;;;5.90;99.90;;;;;;4974217;28;20046;-74
2023/10/18 06:38:48;;;;;;;24.30;18.13;;;5.90;99.90;;;;;;4974114;28;20051;-74
2023/10/18 06:41:19;;;;;;;22.60;17.50;;;6.00;99.90;;;;;;4957413;28;20148;-74
2023/10/18 06:43:46;;;;;;;21.80;17.80;;;6.00;99.90;;;;;;4973980;28;20522;-74
2023/10/18 06:46:26;;;;;;;22.13;18.35;;;6.10;99.90;;;;;;4972816;28;20105;-74
2023/10/18 06:48:55;;;;;;;23.75;17.92;;;6.10;99.90;;;;;;4973813;28;20508;-74
2023/10/18 06:51:43;;;;;;;23.80;18.38;;;6.10;99.90;;;;;;4974456;28;20132;-74
2023/10/18 06:54:13;;;;;;;22.17;17.75;;;6.10;99.90;;;;;;4973908;28;20437;-73
2023/10/18 06:56:40;;;;;;;24.95;18.05;;;6.20;99.90;;;;;;4973892;28;20039;-72
2023/10/18 06:59:10;;;;;;;24.10;18.30;;;6.20;99.90;;;;;;4974011;28;20058;-73
2023/10/18 07:01:53;;;;;;;20.60;17.42;;;6.30;99.90;;;;;;4974248;28;20055;-73
2023/10/18 07:04:18;;;;;;;22.00;17.60;;;6.30;99.90;;;;;;4974189;28;20380;-74
2023/10/18 07:06:45;;;;;;;23.70;18.30;;;6.30;99.90;;;;;;4973603;28;20058;-72
2023/10/18 07:09:31;;;;;;;22.33;16.52;;;6.40;99.90;;;;;;4974080;28;20483;-73
2023/10/18 07:11:57;;;;;;;22.95;17.02;;;6.40;99.90;;;;;;4973604;28;20078;-71
2023/10/18 07:14:24;;;;;;;20.02;17.30;;;6.40;99.90;;;;;;4974131;28;20553;-72
2023/10/18 07:16:56;;;;;;;24.88;16.90;;;6.50;99.90;;;;;;4972719;28;20491;-71
2023/10/18 07:19:55;;;;;;;21.50;17.15;;;6.50;99.90;;;;;;4974093;28;20046;-73
2023/10/18 07:22:19;;;;;;;20.13;15.95;;;6.60;99.90;;;;;;4970688;28;20062;-72
2023/10/18 07:24:54;;;;;;;20.63;15.90;;;6.60;99.90;;;;;;4973736;28;20050;-72
2023/10/18 07:27:23;;;;;;;21.10;16.05;;;6.70;99.90;;;;;;4973531;28;20066;-73
2023/10/18 07:29:49;;;;;;;19.88;15.60;;;6.70;99.90;;;;;;4973466;28;20090;-72
2023/10/18 07:32:23;;;;;;;19.50;15.77;;;6.70;99.90;;;;;;4976308;28;20101;-73
2023/10/18 07:34:54;;;;;;;20.67;16.13;;;6.80;99.90;;;;;;4977138;28;20050;-72
2023/10/18 07:37:54;;;;;;;20.67;15.68;;;6.80;99.90;;;;;;4977829;28;20518;-73
2023/10/18 07:40:20;;;;;;;19.52;15.02;;;6.80;99.90;;;;;;4976190;28;20133;-73
2023/10/18 07:42:49;;;;;;;21.15;15.30;;;6.90;99.90;;;;;;4975992;28;20148;-73
2023/10/18 07:45:16;;;;;;;21.42;15.50;;;6.90;99.90;;;;;;4975819;28;20134;-73
2023/10/18 07:47:42;;;;;;;18.48;15.13;;;6.90;99.90;;;;;;4977260;28;20039;-72
2023/10/18 07:52:54;;;;;;;21.80;15.48;;;7.00;99.90;;;;;;4976938;28;20066;-73
2023/10/18 07:55:23;;;;;;;20.83;14.80;;;7.10;99.90;;;;;;4977037;28;20054;-73
2023/10/18 07:57:50;;;;;;;18.30;15.30;;;7.10;99.90;;;;;;4976599;28;20278;-72
2023/10/18 08:00:22;;;;;;;18.77;15.13;;;7.10;99.90;;;;;;4977073;28;20101;-73
2023/10/18 08:02:49;;;;;;;19.77;14.98;;;7.10;99.90;;;;;;4976919;28;20650;-73
2023/10/18 08:05:23;;;;;;;19.25;14.70;;;7.20;99.90;;;;;;4976947;28;20055;-73
2023/10/18 08:07:50;;;;;;;18.13;14.48;;;7.30;99.90;;;;;;4976625;28;20135;-72
2023/10/18 08:10:19;;;;;;;19.23;14.37;;;7.30;99.90;;;;;;4976618;28;20487;-73
2023/10/18 08:13:08;;;;;;;17.37;13.27;;;7.40;99.90;;;;;;4976754;28;20608;-72
2023/10/18 08:15:35;;;;;;;20.37;14.97;;;7.40;99.90;;;;;;4976903;28;20293;-73
2023/10/18 08:18:42;;;;;;;17.57;14.47;;;7.50;99.90;;;;;;4976433;28;20286;-73
2023/10/18 08:25:52;;;;;;;17.67;14.13;;;7.60;99.90;;;;;;4976257;28;20399;-74
2023/10/18 08:28:18;;;;;;;16.87;13.47;;;7.70;99.90;;;;;;4976767;28;20357;-74
2023/10/18 08:33:10;;;;;;;18.97;13.20;;;7.70;99.90;;;;;;4976088;28;20283;-74
2023/10/18 08:35:36;;;;;;;18.97;12.77;;;7.80;99.90;;;;;;4976562;28;20049;-74
2023/10/18 08:38:02;;;;;;;16.77;12.67;;;7.90;99.90;;;;;;4976161;28;20369;-74
2023/10/18 08:40:38;;;;;;;18.33;12.87;;;7.90;99.90;;;;;;4976472;28;20768;-74
2023/10/18 08:43:23;;;;;;;16.13;12.40;;;7.90;99.90;;;;;;4975666;28;20317;-73
2023/10/18 08:45:50;;;;;;;;;;;8.00;99.90;;;;;;4976387;28;20290;-72
2023/10/18 08:48:29;;;;;;;17.60;12.77;;;8.10;99.90;;;;;;4976544;28;19926;-73
2023/10/18 08:51:02;;;;;;;19.40;12.67;;;8.10;99.90;;;;;;4974976;28;20282;-72
2023/10/18 08:53:31;;;;;;;15.77;12.00;;;8.10;99.90;;;;;;4976173;28;20290;-74
2023/10/18 08:55:58;;;;;;;14.53;11.67;;;8.20;99.90;;;;;;4974860;28;20282;-71
2023/10/18 08:58:28;;;;;;;15.83;11.67;;;8.20;99.90;;;;;;4976066;28;20322;-81
2023/10/18 09:03:29;;;;;;;15.17;11.37;;;8.30;99.90;;;;;;4975988;28;20318;-72
2023/10/18 09:06:03;;;;;;;13.20;10.70;;;8.40;99.90;;;;;;4975586;28;20361;-71
2023/10/18 09:08:35;;;;;;;15.50;11.13;;;8.40;99.90;;;;;;4975772;28;20047;-72
2023/10/18 09:11:05;;;;;;;16.83;11.07;;;8.50;99.90;;;;;;4975686;28;20286;-71
2023/10/18 09:13:37;;;;;;;15.53;11.07;;;8.50;99.90;;;;;;4975983;28;20341;-71
2023/10/18 09:16:11;;;;;;;14.60;11.33;;;8.50;99.90;;;;;;4975446;28;20285;-70
2023/10/18 09:18:37;;;;;;;14.07;10.70;;;8.60;99.90;;;;;;4975514;28;20337;-73
2023/10/18 09:23:40;;;;;;;13.80;11.48;;;8.70;99.90;;;;;;4975818;28;20671;-72
2023/10/18 09:26:18;;;;;;;14.37;11.00;;;8.70;99.90;;;;;;4975049;28;20055;-72
2023/10/18 09:28:44;;;;;;;16.57;11.70;;;8.70;99.90;;;;;;4975463;28;20337;-72
2023/10/18 09:31:16;;;;;;;13.57;10.77;;;8.80;99.90;;;;;;4975055;28;20320;-72
2023/10/18 09:33:52;;;;;;;15.67;11.10;;;8.80;99.90;;;;;;4975222;28;20787;-73
2023/10/18 09:36:19;;;;;;;15.67;11.17;;;8.90;99.90;;;;;;4975160;28;20267;-73
2023/10/18 09:38:49;;;;;;;16.60;11.47;;;9.00;99.90;;;;;;4974052;28;20282;-71
2023/10/18 09:41:16;;;;;;;15.17;10.77;;;9.00;99.90;;;;;;4974872;28;20286;-71
2023/10/18 09:43:42;;;;;;;16.27;11.20;;;9.00;99.90;;;;;;4975147;28;20282;-71
2023/10/18 09:46:10;;;;;;;13.77;10.67;;;9.00;99.90;;;;;;4974493;28;20383;-72
2023/10/18 09:48:46;;;;;;;14.90;11.77;;;9.10;99.90;;;;;;4975154;28;20353;-71
2023/10/18 09:51:15;;;;;;;14.97;10.57;;;9.20;99.90;;;;;;4974935;28;20694;-71
2023/10/18 09:53:51;;;;;;;14.33;11.23;;;9.20;99.90;;;;;;4974158;28;20086;-72
2023/10/18 09:56:27;;;;;;;15.37;11.43;;;9.30;99.90;;;;;;4974705;28;20293;-72
2023/10/18 09:59:05;;;;;;;16.53;11.23;;;9.30;99.90;;;;;;4975019;28;20742;-73
2023/10/18 10:04:12;;;;;;;14.93;11.20;;;9.40;99.90;;;;;;4974565;28;20285;-72
2023/10/18 10:06:45;;;;;;;15.67;10.97;;;9.50;99.90;;;;;;4974590;28;20305;-72
2023/10/18 10:11:45;;;;;;;14.30;10.20;;;9.50;99.90;;;;;;4973799;28;20317;-73
2023/10/18 10:14:16;;;;;;;15.67;11.07;;;9.60;99.90;;;;;;4974577;28;20651;-73
2023/10/18 10:16:57;;;;;;;14.37;10.70;;;9.60;99.90;;;;;;4974672;28;20274;-73
2023/10/18 10:19:29;;;;;;;13.20;9.80;;;9.60;99.90;;;;;;4973290;28;20634;-73
2023/10/18 10:22:04;;;;;;;16.87;10.93;;;9.60;99.90;;;;;;4974528;28;20332;-73
2023/10/18 10:24:42;;;;;;;13.40;9.80;;;9.70;99.90;;;;;;4973841;28;20297;-73
2023/10/18 10:27:27;;;;;;;15.30;9.57;;;9.70;99.90;;;;;;4973757;28;20298;-73
2023/10/18 10:32:52;;;;;;;12.10;9.80;;;9.80;99.90;;;;;;4963788;28;20046;-74
2023/10/18 10:35:27;;;;;;;12.53;9.20;;;9.80;99.90;;;;;;4964864;28;20314;-73
2023/10/18 10:37:55;;;;;;;16.38;9.88;;;9.90;99.90;;;;;;4973437;28;20286;-73
2023/10/18 10:43:03;;;;;;;13.30;10.37;;;9.90;99.90;;;;;;4974378;28;20288;-72
2023/10/18 10:45:32;;;;;;;14.20;8.90;;;10.00;99.90;;;;;;4974175;28;20290;-72
2023/10/18 10:48:18;;;;;;;13.43;9.00;;;10.00;99.90;;;;;;4972864;28;20365;-72
2023/10/18 10:51:06;;;;;;;13.07;9.33;;;10.00;99.90;;;;;;4972724;28;20429;-73
2023/10/18 10:53:43;;;;;;;13.87;9.83;;;10.10;99.90;;;;;;4974121;28;20282;-73
2023/10/18 10:56:18;;;;;;;13.70;9.20;;;10.10;99.90;;;;;;4973772;28;20290;-73
2023/10/18 10:58:56;;;;;;;14.18;9.05;;;10.20;99.90;;;;;;4974004;28;20650;-73
2023/10/18 11:01:44;;;;;;;13.13;9.40;;;10.20;99.90;;;;;;4973499;28;20047;-73
2023/10/18 11:04:25;;;;;;;13.43;9.60;;;10.30;99.90;;;;;;4974158;28;20282;-73
2023/10/18 11:07:03;;;;;;;12.43;9.37;;;10.30;99.90;;;;;;4977873;28;20302;-73
2023/10/18 11:09:34;;;;;;;12.13;9.47;;;10.30;99.90;;;;;;4977731;28;20328;-73
2023/10/18 11:12:08;;;;;;;13.20;8.87;;;10.30;99.90;;;;;;4977055;28;20321;-73
2023/10/18 11:14:37;;;;;;;12.27;8.70;;;10.40;99.90;;;;;;4977784;28;20373;-72
2023/10/18 11:17:17;;;;;;;14.20;9.30;;;10.40;99.90;;;;;;4977779;28;20837;-72
2023/10/18 11:19:43;;;;;;;12.73;9.33;;;10.40;99.90;;;;;;4997145;28;20285;-72
2023/10/18 11:22:14;;;;;;;13.13;9.33;;;10.50;99.90;;;;;;4996526;28;20296;-72
2023/10/18 11:24:40;;;;;;;13.63;10.23;;;10.50;99.90;;;;;;4996460;28;20376;-72
2023/10/18 11:27:09;;;;;;;14.57;9.33;;;10.60;99.90;;;;;;4996966;28;20305;-75
2023/10/18 11:29:39;;;;;;;11.63;8.83;;;10.60;99.90;;;;;;4997130;28;20305;-76
2023/10/18 11:32:15;;;;;;;16.73;9.30;;;10.60;99.90;;;;;;4997052;28;20286;-77
2023/10/18 11:34:43;;;;;;;13.97;9.97;;;10.70;99.90;;;;;;4996960;28;20599;-75
2023/10/18 11:37:09;;;;;;;15.63;10.20;;;10.70;99.90;;;;;;4996777;28;20677;-73
2023/10/18 11:39:36;;;;;;;13.53;9.67;;;10.80;99.90;;;;;;4996809;28;20289;-74
2023/10/18 11:42:03;;;;;;;13.10;9.53;;;10.80;99.90;;;;;;4996550;28;20286;-73
2023/10/18 11:44:33;;;;;;;10.63;8.87;;;10.80;99.90;;;;;;4996366;28;20346;-73
2023/10/18 11:47:11;;;;;;;13.17;8.77;;;10.80;99.90;;;;;;4996500;28;20301;-73
2023/10/18 11:49:42;;;;;;;11.97;9.10;;;10.90;99.90;;;;;;4996814;28;20292;-72
2023/10/18 11:52:21;;;;;;;12.57;9.20;;;10.90;99.90;;;;;;4996634;28;20352;-74
2023/10/18 11:54:51;;;;;;;16.50;8.53;;;10.90;99.90;;;;;;4996360;28;20285;-72
2023/10/18 11:57:30;;;;;;;11.13;8.77;;;11.00;99.90;;;;;;4996192;28;20313;-71
2023/10/18 12:00:25;;;;;;;12.00;8.83;;;11.00;99.90;;;;;;4996554;28;20289;-72
2023/10/18 12:02:44;;;;;;;15.77;9.60;;;11.00;99.90;;;;;;4996410;28;20285;-71
2023/10/18 12:05:13;;;;;;;11.83;8.60;;;11.00;99.90;;;;;;4996160;28;20285;-72
2023/10/18 12:07:44;;;;;;;12.47;9.17;;;11.00;99.90;;;;;;4996187;28;20782;-83
2023/10/18 12:10:18;;;;;;;11.33;8.97;;;11.00;99.90;;;;;;4995858;28;20769;-84
2023/10/18 12:12:51;;;;;;;11.63;9.20;;;11.10;99.90;;;;;;4997233;28;20317;-83
2023/10/18 12:15:17;;;;;;;13.80;8.50;;;11.10;99.90;;;;;;4995864;28;20326;-83
2023/10/18 12:17:45;;;;;;;11.17;7.87;;;11.10;99.90;;;;;;4978539;28;20403;-81
2023/10/18 12:20:12;;;;;;;12.73;9.27;;;11.10;99.90;;;;;;4979350;28;20082;-82
2023/10/18 12:22:42;;;;;;;10.53;8.30;;;11.10;99.90;;;;;;4996226;28;20301;-81
2023/10/18 12:25:09;;;;;;;13.87;8.53;;;11.20;99.90;;;;;;4979128;28;20460;-84
2023/10/18 12:27:34;;;;;;;11.57;8.00;;;11.20;99.90;;;;;;4979076;28;20309;-82
2023/10/18 12:30:27;;;;;;;10.30;8.03;;;11.20;99.90;;;;;;4996412;28;20286;-82
2023/10/18 12:32:57;;;;;;;10.60;8.40;;;11.20;99.90;;;;;;4996165;28;20395;-74
2023/10/18 12:35:28;;;;;;;12.37;7.90;;;11.20;99.90;;;;;;4996459;28;20282;-73
2023/10/18 12:37:54;;;;;;;11.30;7.90;;;11.30;99.90;;;;;;4996194;28;20293;-75
2023/10/18 12:43:06;;;;;;;10.97;8.00;;;11.30;99.90;;;;;;4996311;28;20274;-74
2023/10/18 12:45:45;;;;;;;10.93;7.20;;;11.30;99.90;;;;;;4996243;28;20473;-75
2023/10/18 12:48:11;;;;;;;10.60;7.43;;;11.30;99.90;;;;;;4996110;28;20301;-75
2023/10/18 12:50:38;;;;;;;10.97;7.40;;;11.40;99.90;;;;;;4996127;28;20285;-77
2023/10/18 12:55:57;;;;;;;10.13;7.73;;;11.50;99.90;;;;;;4995554;28;20285;-85
2023/10/18 12:58:28;;;;;;;10.77;7.00;;;11.50;99.90;;;;;;4995070;28;20286;-83
2023/10/18 13:01:06;;;;;;;10.53;6.87;;;11.60;99.90;;;;;;4994681;28;20443;-74
2023/10/18 13:03:34;;;;;;;11.23;7.03;;;11.60;99.90;;;;;;4994897;28;20614;-75
2023/10/18 13:06:00;;;;;;;12.37;7.73;;;11.60;99.90;;;;;;4995698;28;20281;-84
2023/10/18 13:08:26;;;;;;;10.20;7.47;;;11.70;99.90;;;;;;4995736;28;20294;-80
2023/10/18 13:11:44;;;;;;;9.73;7.10;;;11.70;99.90;;;;;;4995754;28;20289;-78
2023/10/18 13:13:45;;;;;;;9.63;6.63;;;11.90;99.90;;;;;;4992579;28;20105;-75
2023/10/18 13:16:14;;;;;;;11.27;7.10;;;11.90;99.90;;;;;;4995697;28;20634;-75
2023/10/18 13:18:41;;;;;;;9.23;6.97;;;12.00;99.90;;;;;;4995887;28;20285;-75
2023/10/18 13:21:12;;;;;;;9.53;6.90;;;12.00;99.90;;;;;;4994544;28;20372;-81
2023/10/18 13:23:44;;;;;;;12.67;7.87;;;12.00;99.90;;;;;;4994780;28;20364;-74
2023/10/18 13:26:11;;;;;;;11.87;7.33;;;12.10;99.90;;;;;;4993897;28;20701;-75
2023/10/18 13:28:51;;;;;;;10.63;7.07;;;12.10;99.90;;;;;;4994066;28;20286;-82
2023/10/18 13:31:22;;;;;;;11.37;7.30;;;12.20;99.90;;;;;;4996113;28;20328;-74
2023/10/18 13:33:52;;;;;;;10.83;7.13;;;12.10;99.90;;;;;;4995748;28;20289;-74
2023/10/18 13:36:21;;;;;;;10.40;7.03;;;12.10;99.90;;;;;;4995710;28;20332;-74
2023/10/18 13:38:49;;;;;;;10.47;7.37;;;12.20;99.90;;;;;;4994492;28;20290;-75
2023/10/18 13:41:16;;;;;;;10.03;6.73;;;12.20;99.90;;;;;;4995106;28;20289;-76
2023/10/18 13:43:41;;;;;;;10.33;6.63;;;12.10;99.90;;;;;;4994039;28;20285;-84
2023/10/18 13:46:16;;;;;;;10.87;7.10;;;12.10;99.90;;;;;;4978384;28;20768;-84
2023/10/18 13:48:46;;;;;;;10.20;7.57;;;12.00;99.90;;;;;;4995641;28;20046;-86
2023/10/18 13:51:13;;;;;;;9.27;6.87;;;12.10;99.90;;;;;;4995659;28;20057;-81
2023/10/18 13:53:41;;;;;;;10.83;7.10;;;12.00;99.90;;;;;;4994854;28;20290;-77
2023/10/18 13:56:10;;;;;;;9.90;6.57;;;11.90;99.90;;;;;;4993577;28;20289;-80
2023/10/18 13:58:36;;;;;;;11.40;6.83;;;11.90;99.90;;;;;;4993809;28;20294;-79
2023/10/18 14:01:05;;;;;;;9.87;7.03;;;11.80;99.90;;;;;;4993796;28;20372;-78
2023/10/18 14:03:32;;;;;;;10.37;6.80;;;11.70;99.90;;;;;;4978034;28;20351;-78